createdAt,value
2019-04-03T00:00:44.463Z,957.24
2019-04-03T00:01:44.451Z,957.25
2019-04-03T00:02:44.442Z,957.24
2019-04-03T00:03:44.438Z,957.25
2019-04-03T00:04:44.430Z,957.31
2019-04-03T00:05:44.427Z,957.27
2019-04-03T00:06:44.414Z,957.28
2019-04-03T00:07:44.407Z,957.26
2019-04-03T00:08:44.401Z,957.29
2019-04-03T00:09:44.448Z,957.24
2019-04-03T00:10:44.394Z,957.26
2019-04-03T00:11:44.379Z,957.28
2019-04-03T00:12:44.373Z,957.3
2019-04-03T00:13:44.368Z,957.29
2019-04-03T00:14:44.358Z,957.28
2019-04-03T00:15:44.596Z,957.31
2019-04-03T00:16:45.472Z,957.26
2019-04-03T00:17:45.914Z,957.31
2019-04-03T00:18:46.767Z,957.27
2019-04-03T00:19:45.725Z,957.29
2019-04-03T00:20:44.317Z,957.27
2019-04-03T00:21:44.403Z,957.28
2019-04-03T00:22:46.031Z,957.25
2019-04-03T00:23:44.297Z,957.23
2019-04-03T00:24:44.309Z,957.25
2019-04-03T00:25:44.350Z,957.22
2019-04-03T00:26:44.276Z,957.19
2019-04-03T00:27:44.371Z,957.21
2019-04-03T00:28:44.296Z,957.19
2019-04-03T00:29:44.457Z,957.2
2019-04-03T00:30:44.250Z,957.2
2019-04-03T00:31:44.239Z,957.19
2019-04-03T00:32:44.233Z,957.18
2019-04-03T00:33:44.227Z,957.18
2019-04-03T00:34:44.220Z,957.2
2019-04-03T00:35:44.215Z,957.16
2019-04-03T00:36:44.363Z,957.17
2019-04-03T00:37:44.199Z,957.16
2019-04-03T00:38:44.191Z,957.13
2019-04-03T00:39:44.261Z,957.08
2019-04-03T00:40:44.178Z,957.1
2019-04-03T00:41:44.171Z,957.07
2019-04-03T00:42:44.164Z,957.1
2019-04-03T00:43:44.158Z,957.04
2019-04-03T00:44:44.150Z,957.06
2019-04-03T00:45:44.143Z,957.02
2019-04-03T00:46:44.136Z,957.03
2019-04-03T00:47:44.129Z,957.02
2019-04-03T00:48:44.124Z,957
2019-04-03T00:49:44.116Z,957.05
2019-04-03T00:50:44.110Z,957.03
2019-04-03T00:51:44.102Z,957.02
2019-04-03T00:52:44.095Z,957.05
2019-04-03T00:53:44.087Z,957.06
2019-04-03T00:54:44.083Z,957.03
2019-04-03T00:55:44.074Z,957
2019-04-03T00:56:44.068Z,956.95
2019-04-03T00:57:44.061Z,956.97
2019-04-03T00:58:44.187Z,956.95
2019-04-03T00:59:44.048Z,956.93
2019-04-03T01:00:44.037Z,956.93
2019-04-03T01:01:44.031Z,956.95
2019-04-03T01:02:44.025Z,956.92
2019-04-03T01:03:44.019Z,956.94
2019-04-03T01:04:44.062Z,956.9
2019-04-03T01:05:44.004Z,956.88
2019-04-03T01:06:43.998Z,956.88
2019-04-03T01:07:44.062Z,956.87
2019-04-03T01:08:43.983Z,956.89
2019-04-03T01:09:43.976Z,956.85
2019-04-03T01:10:43.970Z,956.85
2019-04-03T01:11:43.962Z,956.87
2019-04-03T01:12:43.955Z,956.84
2019-04-03T01:13:43.949Z,956.87
2019-04-03T01:14:43.942Z,956.88
2019-04-03T01:15:43.935Z,956.85
2019-04-03T01:16:43.928Z,956.86
2019-04-03T01:17:43.920Z,956.8
2019-04-03T01:18:43.913Z,956.81
2019-04-03T01:19:43.906Z,956.81
2019-04-03T01:20:43.899Z,956.84
2019-04-03T01:21:43.892Z,956.82
2019-04-03T01:22:43.884Z,956.82
2019-04-03T01:23:43.879Z,956.79
2019-04-03T01:24:43.991Z,956.78
2019-04-03T01:25:43.863Z,956.75
2019-04-03T01:26:43.856Z,956.74
2019-04-03T01:27:43.850Z,956.76
2019-04-03T01:28:43.842Z,956.73
2019-04-03T01:29:43.835Z,956.75
2019-04-03T01:30:44.168Z,956.75
2019-04-03T01:31:44.673Z,956.73
2019-04-03T01:32:46.043Z,956.72
2019-04-03T01:33:45.958Z,956.72
2019-04-03T01:34:43.800Z,956.73
2019-04-03T01:35:43.795Z,956.72
2019-04-03T01:36:43.786Z,956.69
2019-04-03T01:37:43.779Z,956.7
2019-04-03T01:38:43.772Z,956.7
2019-04-03T01:39:43.765Z,956.69
2019-04-03T01:40:43.757Z,956.7
2019-04-03T01:41:43.750Z,956.71
2019-04-03T01:42:43.745Z,956.69
2019-04-03T01:43:43.737Z,956.7
2019-04-03T01:44:43.729Z,956.71
2019-04-03T01:45:43.724Z,956.67
2019-04-03T01:46:43.716Z,956.65
2019-04-03T01:47:43.709Z,956.66
2019-04-03T01:48:43.703Z,956.63
2019-04-03T01:49:43.694Z,956.6
2019-04-03T01:50:43.689Z,956.63
2019-04-03T01:51:43.681Z,956.66
2019-04-03T01:52:43.672Z,956.64
2019-04-03T01:53:43.667Z,956.66
2019-04-03T01:54:43.659Z,956.63
2019-04-03T01:55:43.650Z,956.65
2019-04-03T01:56:43.646Z,956.63
2019-04-03T01:57:43.857Z,956.6
2019-04-03T01:58:43.632Z,956.63
2019-04-03T01:59:43.722Z,956.6
2019-04-03T02:00:43.616Z,956.61
2019-04-03T02:01:43.613Z,956.58
2019-04-03T02:02:43.603Z,956.6
2019-04-03T02:03:43.597Z,956.59
2019-04-03T02:04:43.589Z,956.6
2019-04-03T02:05:44.104Z,956.62
2019-04-03T02:06:44.282Z,956.56
2019-04-03T02:07:44.604Z,956.55
2019-04-03T02:08:44.800Z,956.52
2019-04-03T02:09:46.119Z,956.5
2019-04-03T02:10:43.546Z,956.51
2019-04-03T02:11:43.542Z,956.49
2019-04-03T02:12:43.533Z,956.48
2019-04-03T02:13:43.646Z,956.45
2019-04-03T02:14:43.516Z,956.45
2019-04-03T02:15:43.510Z,956.45
2019-04-03T02:16:43.656Z,956.44
2019-04-03T02:17:43.495Z,956.47
2019-04-03T02:18:43.488Z,956.41
2019-04-03T02:19:43.645Z,956.45
2019-04-03T02:20:43.474Z,956.39
2019-04-03T02:21:43.470Z,956.3
2019-04-03T02:22:43.461Z,956.28
2019-04-03T02:23:43.535Z,956.3
2019-04-03T02:24:43.447Z,956.29
2019-04-03T02:25:43.479Z,956.28
2019-04-03T02:26:43.433Z,956.34
2019-04-03T02:27:43.496Z,956.35
2019-04-03T02:28:43.418Z,956.32
2019-04-03T02:29:43.487Z,956.32
2019-04-03T02:30:45.955Z,956.3
2019-04-03T02:31:43.414Z,956.31
2019-04-03T02:32:43.666Z,956.3
2019-04-03T02:33:43.383Z,956.24
2019-04-03T02:34:43.377Z,956.25
2019-04-03T02:35:43.367Z,956.22
2019-04-03T02:36:44.815Z,956.24
2019-04-03T02:37:43.367Z,956.25
2019-04-03T02:38:43.355Z,956.31
2019-04-03T02:39:43.390Z,956.3
2019-04-03T02:40:43.333Z,956.31
2019-04-03T02:41:43.326Z,956.24
2019-04-03T02:42:43.381Z,956.18
2019-04-03T02:43:46.237Z,956.23
2019-04-03T02:44:43.442Z,956.2
2019-04-03T02:45:43.299Z,956.21
2019-04-03T02:46:43.291Z,956.23
2019-04-03T02:47:43.292Z,956.21
2019-04-03T02:48:43.350Z,956.25
2019-04-03T02:49:43.925Z,956.23
2019-04-03T02:50:46.491Z,956.25
2019-04-03T02:51:43.256Z,956.2
2019-04-03T02:52:43.249Z,956.2
2019-04-03T02:53:43.247Z,956.18
2019-04-03T02:54:43.237Z,956.17
2019-04-03T02:55:43.228Z,956.16
2019-04-03T02:56:45.106Z,956.15
2019-04-03T02:57:43.235Z,956.13
2019-04-03T02:58:43.367Z,956.16
2019-04-03T02:59:43.197Z,956.13
2019-04-03T03:00:43.525Z,956.1
2019-04-03T03:01:43.196Z,956.1
2019-04-03T03:02:45.080Z,956.12
2019-04-03T03:03:43.664Z,956.11
2019-04-03T03:04:43.162Z,956.11
2019-04-03T03:05:43.155Z,956.12
2019-04-03T03:06:43.148Z,956.1
2019-04-03T03:07:43.146Z,956.14
2019-04-03T03:08:43.157Z,956.1
2019-04-03T03:09:45.514Z,956.11
2019-04-03T03:10:43.120Z,956.11
2019-04-03T03:11:43.117Z,956.1
2019-04-03T03:12:43.106Z,956.07
2019-04-03T03:13:43.261Z,956.08
2019-04-03T03:14:43.091Z,956.07
2019-04-03T03:15:43.764Z,956.09
2019-04-03T03:16:43.080Z,956.09
2019-04-03T03:17:43.086Z,956.09
2019-04-03T03:18:43.243Z,956.04
2019-04-03T03:19:43.062Z,956.04
2019-04-03T03:20:43.048Z,956.07
2019-04-03T03:21:44.608Z,956.09
2019-04-03T03:22:43.073Z,956.09
2019-04-03T03:23:43.026Z,956.1
2019-04-03T03:24:43.034Z,956.1
2019-04-03T03:25:43.012Z,956.07
2019-04-03T03:26:43.003Z,956.13
2019-04-03T03:27:43.330Z,956.06
2019-04-03T03:28:45.505Z,956.02
2019-04-03T03:29:42.983Z,956.01
2019-04-03T03:30:48.321Z,956.02
2019-04-03T03:32:04.218Z,956.03
2019-04-03T03:32:43.192Z,956.01
2019-04-03T03:33:43.633Z,956.04
2019-04-03T03:34:52.659Z,956.05
2019-04-03T03:35:49.076Z,956.06
2019-04-03T03:36:47.494Z,956.06
2019-04-03T03:37:47.193Z,956.05
2019-04-03T03:38:47.435Z,956.08
2019-04-03T03:39:47.183Z,956.05
2019-04-03T03:40:48.707Z,955.99
2019-04-03T03:41:47.173Z,955.98
2019-04-03T03:42:47.158Z,956.03
2019-04-03T03:43:47.155Z,956.02
2019-04-03T03:44:47.220Z,956.03
2019-04-03T03:45:47.178Z,956.05
2019-04-03T03:46:47.133Z,956.13
2019-04-03T03:47:47.124Z,956.1
2019-04-03T03:48:47.120Z,956.03
2019-04-03T03:49:49.521Z,955.99
2019-04-03T03:50:47.101Z,956.01
2019-04-03T03:51:47.095Z,955.98
2019-04-03T03:52:47.370Z,955.98
2019-04-03T03:53:47.079Z,956.01
2019-04-03T03:54:49.535Z,956
2019-04-03T03:55:47.066Z,955.99
2019-04-03T03:56:47.192Z,955.99
2019-04-03T03:57:47.051Z,955.95
2019-04-03T03:58:47.051Z,955.91
2019-04-03T03:59:49.337Z,955.93
2019-04-03T04:00:51.642Z,955.92
2019-04-03T04:01:47.025Z,955.89
2019-04-03T04:02:47.021Z,955.9
2019-04-03T04:03:47.007Z,955.88
2019-04-03T04:04:48.314Z,955.87
2019-04-03T04:05:46.997Z,955.87
2019-04-03T04:06:47.319Z,955.81
2019-04-03T04:07:47.078Z,955.8
2019-04-03T04:08:46.983Z,955.77
2019-04-03T04:09:49.436Z,955.78
2019-04-03T04:10:46.975Z,955.78
2019-04-03T04:11:46.949Z,955.76
2019-04-03T04:12:47.252Z,955.73
2019-04-03T04:13:48.382Z,955.73
2019-04-03T04:14:46.928Z,955.75
2019-04-03T04:15:47.013Z,955.75
2019-04-03T04:16:46.926Z,955.74
2019-04-03T04:17:49.942Z,955.76
2019-04-03T04:18:46.904Z,955.75
2019-04-03T04:19:47.068Z,955.74
2019-04-03T04:20:47.024Z,955.72
2019-04-03T04:21:47.159Z,955.7
2019-04-03T04:22:50.193Z,955.72
2019-04-03T04:23:46.868Z,955.73
2019-04-03T04:24:46.855Z,955.7
2019-04-03T04:25:46.848Z,955.7
2019-04-03T04:26:49.759Z,955.71
2019-04-03T04:27:46.835Z,955.7
2019-04-03T04:28:46.827Z,955.71
2019-04-03T04:29:46.818Z,955.72
2019-04-03T04:30:47.095Z,955.7
2019-04-03T04:31:46.877Z,955.7
2019-04-03T04:32:46.975Z,955.7
2019-04-03T04:33:47.926Z,955.7
2019-04-03T04:34:49.166Z,955.67
2019-04-03T04:35:46.778Z,955.66
2019-04-03T04:36:46.767Z,955.66
2019-04-03T04:37:46.760Z,955.67
2019-04-03T04:38:46.752Z,955.63
2019-04-03T04:39:46.755Z,955.59
2019-04-03T04:40:46.920Z,955.62
2019-04-03T04:41:46.936Z,955.64
2019-04-03T04:42:46.724Z,955.64
2019-04-03T04:43:46.723Z,955.66
2019-04-03T04:44:46.712Z,955.66
2019-04-03T04:45:46.700Z,955.61
2019-04-03T04:46:46.694Z,955.61
2019-04-03T04:47:46.887Z,955.63
2019-04-03T04:48:46.680Z,955.6
2019-04-03T04:49:46.774Z,955.62
2019-04-03T04:50:46.665Z,955.57
2019-04-03T04:51:46.656Z,955.6
2019-04-03T04:52:46.726Z,955.63
2019-04-03T04:53:46.643Z,955.62
2019-04-03T04:54:46.639Z,955.62
2019-04-03T04:55:46.628Z,955.62
2019-04-03T04:56:46.619Z,955.62
2019-04-03T04:57:46.613Z,955.6
2019-04-03T04:58:46.606Z,955.59
2019-04-03T04:59:46.599Z,955.59
2019-04-03T05:00:47.371Z,955.58
2019-04-03T05:01:46.993Z,955.55
2019-04-03T05:02:46.576Z,955.52
2019-04-03T05:03:46.569Z,955.53
2019-04-03T05:04:46.650Z,955.57
2019-04-03T05:05:46.859Z,955.53
2019-04-03T05:06:46.546Z,955.51
2019-04-03T05:07:46.538Z,955.53
2019-04-03T05:08:46.813Z,955.51
2019-04-03T05:09:46.671Z,955.55
2019-04-03T05:10:48.686Z,955.53
2019-04-03T05:11:46.510Z,955.49
2019-04-03T05:12:46.501Z,955.51
2019-04-03T05:13:47.183Z,955.51
2019-04-03T05:14:46.805Z,955.53
2019-04-03T05:15:46.479Z,955.47
2019-04-03T05:16:46.658Z,955.48
2019-04-03T05:17:46.466Z,955.52
2019-04-03T05:18:46.457Z,955.52
2019-04-03T05:19:46.773Z,955.51
2019-04-03T05:20:46.467Z,955.54
2019-04-03T05:21:46.463Z,955.51
2019-04-03T05:22:46.430Z,955.54
2019-04-03T05:23:46.422Z,955.51
2019-04-03T05:24:46.413Z,955.52
2019-04-03T05:25:46.473Z,955.5
2019-04-03T05:26:46.399Z,955.54
2019-04-03T05:27:46.393Z,955.52
2019-04-03T05:28:54.526Z,955.53
2019-04-03T05:29:46.380Z,955.52
2019-04-03T05:30:46.387Z,955.53
2019-04-03T05:31:46.363Z,955.5
2019-04-03T05:32:46.440Z,955.51
2019-04-03T05:33:46.420Z,955.53
2019-04-03T05:34:46.340Z,955.57
2019-04-03T05:35:46.650Z,955.57
2019-04-03T05:36:46.785Z,955.48
2019-04-03T05:37:46.320Z,955.51
2019-04-03T05:38:46.313Z,955.54
2019-04-03T05:39:46.398Z,955.52
2019-04-03T05:40:46.297Z,955.56
2019-04-03T05:41:46.289Z,955.57
2019-04-03T05:42:46.282Z,955.52
2019-04-03T05:43:46.273Z,955.58
2019-04-03T05:44:46.270Z,955.54
2019-04-03T05:45:46.402Z,955.54
2019-04-03T05:46:46.389Z,955.56
2019-04-03T05:47:46.245Z,955.54
2019-04-03T05:48:47.970Z,955.53
2019-04-03T05:49:47.130Z,955.53
2019-04-03T05:50:46.227Z,955.56
2019-04-03T05:51:46.216Z,955.51
2019-04-03T05:52:46.209Z,955.52
2019-04-03T05:53:46.201Z,955.5
2019-04-03T05:54:46.193Z,955.51
2019-04-03T05:55:46.186Z,955.51
2019-04-03T05:56:46.178Z,955.51
2019-04-03T05:57:46.231Z,955.5
2019-04-03T05:58:55.143Z,955.48
2019-04-03T05:59:58.499Z,955.49
2019-04-03T06:00:46.148Z,955.48
2019-04-03T06:01:46.919Z,955.48
2019-04-03T06:02:46.265Z,955.43
2019-04-03T06:03:46.334Z,955.43
2019-04-03T06:04:46.163Z,955.42
2019-04-03T06:05:46.112Z,955.41
2019-04-03T06:06:47.224Z,955.37
2019-04-03T06:07:46.999Z,955.42
2019-04-03T06:08:46.317Z,955.4
2019-04-03T06:09:46.084Z,955.42
2019-04-03T06:10:46.135Z,955.41
2019-04-03T06:11:46.075Z,955.42
2019-04-03T06:12:46.660Z,955.38
2019-04-03T06:13:47.970Z,955.38
2019-04-03T06:14:46.046Z,955.37
2019-04-03T06:15:46.040Z,955.38
2019-04-03T06:16:46.106Z,955.39
2019-04-03T06:17:46.025Z,955.4
2019-04-03T06:18:47.430Z,955.37
2019-04-03T06:19:46.010Z,955.37
2019-04-03T06:20:46.003Z,955.35
2019-04-03T06:21:46.557Z,955.33
2019-04-03T06:22:45.987Z,955.34
2019-04-03T06:23:46.105Z,955.39
2019-04-03T06:24:45.980Z,955.36
2019-04-03T06:25:45.966Z,955.42
2019-04-03T06:26:45.960Z,955.4
2019-04-03T06:27:46.447Z,955.4
2019-04-03T06:28:47.391Z,955.43
2019-04-03T06:29:45.936Z,955.39
2019-04-03T06:30:45.929Z,955.36
2019-04-03T06:31:45.922Z,955.34
2019-04-03T06:32:45.915Z,955.33
2019-04-03T06:33:45.907Z,955.32
2019-04-03T06:34:45.900Z,955.28
2019-04-03T06:35:46.110Z,955.31
2019-04-03T06:36:45.885Z,955.3
2019-04-03T06:37:45.953Z,955.32
2019-04-03T06:38:45.871Z,955.3
2019-04-03T06:39:45.864Z,955.29
2019-04-03T06:40:46.038Z,955.28
2019-04-03T06:41:45.849Z,955.23
2019-04-03T06:42:45.845Z,955.2
2019-04-03T06:43:48.945Z,955.27
2019-04-03T06:44:45.856Z,955.22
2019-04-03T06:45:45.820Z,955.23
2019-04-03T06:46:45.813Z,955.19
2019-04-03T06:47:45.805Z,955.14
2019-04-03T06:48:45.987Z,955.08
2019-04-03T06:49:45.791Z,955.06
2019-04-03T06:50:45.904Z,955.06
2019-04-03T06:51:45.776Z,955.05
2019-04-03T06:52:45.770Z,955.06
2019-04-03T06:53:45.943Z,955.07
2019-04-03T06:54:45.756Z,955.11
2019-04-03T06:55:45.749Z,955.1
2019-04-03T06:56:45.741Z,955.1
2019-04-03T06:57:45.742Z,955.12
2019-04-03T06:58:45.964Z,955.09
2019-04-03T06:59:46.505Z,955.11
2019-04-03T07:00:47.283Z,955.09
2019-04-03T07:01:45.707Z,955.06
2019-04-03T07:02:45.698Z,955.07
2019-04-03T07:03:45.891Z,955.05
2019-04-03T07:04:45.684Z,955.12
2019-04-03T07:05:45.676Z,955.09
2019-04-03T07:06:45.744Z,955.04
2019-04-03T07:07:45.662Z,955.06
2019-04-03T07:08:45.894Z,955.02
2019-04-03T07:09:45.647Z,955
2019-04-03T07:10:54.768Z,954.94
2019-04-03T07:11:45.640Z,954.99
2019-04-03T07:12:46.390Z,954.94
2019-04-03T07:13:45.828Z,954.99
2019-04-03T07:14:45.612Z,955.02
2019-04-03T07:15:45.607Z,955.12
2019-04-03T07:16:45.599Z,955.06
2019-04-03T07:17:45.594Z,955.08
2019-04-03T07:18:45.587Z,955.05
2019-04-03T07:19:45.577Z,955.05
2019-04-03T07:20:45.568Z,954.98
2019-04-03T07:21:45.563Z,955.05
2019-04-03T07:22:45.554Z,955.05
2019-04-03T07:23:45.741Z,955.1
2019-04-03T07:24:45.540Z,955.03
2019-04-03T07:25:45.533Z,955.02
2019-04-03T07:26:45.528Z,954.97
2019-04-03T07:27:45.520Z,954.92
2019-04-03T07:28:45.511Z,954.89
2019-04-03T07:29:46.782Z,954.89
2019-04-03T07:30:45.498Z,954.91
2019-04-03T07:31:45.490Z,954.94
2019-04-03T07:32:45.484Z,954.94
2019-04-03T07:33:45.476Z,954.94
2019-04-03T07:34:45.492Z,954.91
2019-04-03T07:35:45.686Z,954.86
2019-04-03T07:36:46.317Z,954.91
2019-04-03T07:37:45.448Z,954.94
2019-04-03T07:38:45.533Z,954.97
2019-04-03T07:39:45.433Z,954.97
2019-04-03T07:40:45.437Z,954.98
2019-04-03T07:41:45.420Z,954.98
2019-04-03T07:42:45.671Z,954.97
2019-04-03T07:43:45.405Z,954.94
2019-04-03T07:44:45.398Z,954.95
2019-04-03T07:45:45.592Z,954.94
2019-04-03T07:46:45.386Z,954.96
2019-04-03T07:47:45.684Z,954.98
2019-04-03T07:48:45.372Z,954.97
2019-04-03T07:49:45.362Z,954.97
2019-04-03T07:50:45.355Z,955
2019-04-03T07:51:45.348Z,954.97
2019-04-03T07:52:47.398Z,954.98
2019-04-03T07:53:45.333Z,954.98
2019-04-03T07:54:45.326Z,954.94
2019-04-03T07:55:45.321Z,954.95
2019-04-03T07:56:45.362Z,954.93
2019-04-03T07:57:45.522Z,954.9
2019-04-03T07:58:45.538Z,954.88
2019-04-03T07:59:45.291Z,954.87
2019-04-03T08:00:45.358Z,954.93
2019-04-03T08:01:45.516Z,954.89
2019-04-03T08:02:48.154Z,954.85
2019-04-03T08:03:45.265Z,954.86
2019-04-03T08:04:45.257Z,954.87
2019-04-03T08:05:45.249Z,954.84
2019-04-03T08:06:45.242Z,954.86
2019-04-03T08:07:45.235Z,954.84
2019-04-03T08:08:45.244Z,954.83
2019-04-03T08:09:45.221Z,954.82
2019-04-03T08:10:45.215Z,954.78
2019-04-03T08:11:45.433Z,954.79
2019-04-03T08:12:45.201Z,954.81
2019-04-03T08:13:45.418Z,954.85
2019-04-03T08:14:45.368Z,954.84
2019-04-03T08:15:45.482Z,954.84
2019-04-03T08:16:45.852Z,954.83
2019-04-03T08:17:45.163Z,954.84
2019-04-03T08:18:45.157Z,954.82
2019-04-03T08:19:45.976Z,954.83
2019-04-03T08:20:45.162Z,954.83
2019-04-03T08:21:45.136Z,954.83
2019-04-03T08:22:45.128Z,954.83
2019-04-03T08:23:45.128Z,954.83
2019-04-03T08:24:45.115Z,954.78
2019-04-03T08:25:48.033Z,954.77
2019-04-03T08:26:45.100Z,954.77
2019-04-03T08:27:45.094Z,954.76
2019-04-03T08:28:45.087Z,954.71
2019-04-03T08:29:45.082Z,954.71
2019-04-03T08:30:45.073Z,954.74
2019-04-03T08:31:47.931Z,954.71
2019-04-03T08:32:47.303Z,954.73
2019-04-03T08:33:45.139Z,954.72
2019-04-03T08:34:45.044Z,954.73
2019-04-03T08:35:45.262Z,954.73
2019-04-03T08:36:45.033Z,954.7
2019-04-03T08:37:45.024Z,954.64
2019-04-03T08:38:45.478Z,954.63
2019-04-03T08:39:45.171Z,954.61
2019-04-03T08:40:45.002Z,954.61
2019-04-03T08:41:45.410Z,954.63
2019-04-03T08:42:45.226Z,954.54
2019-04-03T08:43:44.982Z,954.53
2019-04-03T08:44:44.976Z,954.54
2019-04-03T08:45:44.968Z,954.48
2019-04-03T08:46:45.266Z,954.53
2019-04-03T08:47:46.203Z,954.51
2019-04-03T08:48:45.222Z,954.48
2019-04-03T08:49:44.940Z,954.47
2019-04-03T08:50:44.934Z,954.46
2019-04-03T08:51:44.925Z,954.49
2019-04-03T08:52:44.919Z,954.47
2019-04-03T08:53:44.912Z,954.46
2019-04-03T08:54:44.905Z,954.4
2019-04-03T08:55:46.363Z,954.4
2019-04-03T08:56:44.890Z,954.33
2019-04-03T08:57:46.086Z,954.34
2019-04-03T08:58:45.982Z,954.3
2019-04-03T08:59:45.075Z,954.3
2019-04-03T09:00:45.124Z,954.32
2019-04-03T09:01:44.856Z,954.28
2019-04-03T09:02:44.850Z,954.32
2019-04-03T09:03:45.664Z,954.31
2019-04-03T09:04:45.931Z,954.31
2019-04-03T09:05:44.830Z,954.24
2019-04-03T09:06:45.057Z,954.25
2019-04-03T09:07:45.125Z,954.25
2019-04-03T09:08:44.807Z,954.2
2019-04-03T09:09:44.801Z,954.19
2019-04-03T09:10:44.794Z,954.15
2019-04-03T09:11:44.791Z,954.12
2019-04-03T09:12:44.779Z,954.12
2019-04-03T09:13:44.953Z,954.1
2019-04-03T09:14:44.768Z,954.07
2019-04-03T09:15:44.759Z,954.04
2019-04-03T09:16:44.752Z,954.05
2019-04-03T09:17:44.744Z,953.98
2019-04-03T09:18:44.743Z,953.98
2019-04-03T09:19:44.871Z,953.94
2019-04-03T09:20:44.731Z,953.89
2019-04-03T09:21:44.898Z,953.91
2019-04-03T09:22:44.710Z,953.85
2019-04-03T09:23:44.703Z,953.88
2019-04-03T09:24:44.695Z,953.89
2019-04-03T09:25:44.932Z,953.85
2019-04-03T09:26:44.682Z,953.85
2019-04-03T09:27:44.676Z,953.83
2019-04-03T09:28:44.885Z,953.88
2019-04-03T09:29:45.806Z,953.83
2019-04-03T09:30:46.794Z,953.8
2019-04-03T09:31:44.650Z,953.8
2019-04-03T09:32:44.642Z,953.77
2019-04-03T09:33:45.025Z,953.71
2019-04-03T09:34:44.762Z,953.67
2019-04-03T09:35:44.621Z,953.63
2019-04-03T09:36:44.613Z,953.61
2019-04-03T09:37:46.008Z,953.59
2019-04-03T09:38:44.601Z,953.57
2019-04-03T09:39:45.775Z,953.54
2019-04-03T09:40:47.203Z,953.53
2019-04-03T09:41:44.581Z,953.5
2019-04-03T09:42:44.574Z,953.49
2019-04-03T09:43:44.566Z,953.45
2019-04-03T09:44:44.560Z,953.44
2019-04-03T09:45:44.683Z,953.42
2019-04-03T09:46:45.210Z,953.44
2019-04-03T09:47:44.604Z,953.38
2019-04-03T09:48:44.615Z,953.38
2019-04-03T09:49:44.675Z,953.37
2019-04-03T09:50:46.023Z,953.37
2019-04-03T09:51:44.513Z,953.32
2019-04-03T09:52:48.621Z,953.33
2019-04-03T09:53:44.500Z,953.31
2019-04-03T09:54:44.492Z,953.29
2019-04-03T09:55:44.488Z,953.28
2019-04-03T09:56:56.041Z,953.24
2019-04-03T09:57:44.478Z,953.25
2019-04-03T09:58:44.466Z,953.25
2019-04-03T09:59:44.460Z,953.24
2019-04-03T10:00:44.456Z,953.24
2019-04-03T10:01:45.688Z,953.19
2019-04-03T10:02:44.439Z,953.18
2019-04-03T10:03:44.701Z,953.17
2019-04-03T10:04:44.427Z,953.16
2019-04-03T10:05:44.421Z,953.11
2019-04-03T10:06:44.414Z,953.06
2019-04-03T10:07:44.409Z,953.04
2019-04-03T10:08:44.405Z,953.05
2019-04-03T10:09:44.922Z,953
2019-04-03T10:10:44.919Z,953
2019-04-03T10:11:44.438Z,952.97
2019-04-03T10:12:47.217Z,953
2019-04-03T10:13:44.369Z,952.99
2019-04-03T10:14:44.362Z,952.98
2019-04-03T10:15:44.356Z,952.94
2019-04-03T10:16:44.349Z,952.89
2019-04-03T10:17:44.343Z,952.87
2019-04-03T10:18:44.576Z,952.86
2019-04-03T10:19:45.506Z,952.85
2019-04-03T10:20:44.338Z,952.85
2019-04-03T10:21:44.316Z,952.85
2019-04-03T10:22:44.311Z,952.83
2019-04-03T10:23:44.517Z,952.81
2019-04-03T10:24:44.298Z,952.8
2019-04-03T10:25:44.294Z,952.75
2019-04-03T10:26:44.284Z,952.72
2019-04-03T10:27:44.639Z,952.72
2019-04-03T10:28:46.742Z,952.68
2019-04-03T10:29:44.267Z,952.66
2019-04-03T10:30:44.259Z,952.64
2019-04-03T10:31:44.252Z,952.62
2019-04-03T10:32:44.250Z,952.59
2019-04-03T10:33:44.240Z,952.58
2019-04-03T10:34:44.579Z,952.54
2019-04-03T10:35:46.871Z,952.53
2019-04-03T10:36:44.271Z,952.49
2019-04-03T10:37:46.229Z,952.48
2019-04-03T10:38:44.208Z,952.48
2019-04-03T10:39:44.903Z,952.44
2019-04-03T10:40:44.436Z,952.4
2019-04-03T10:41:44.189Z,952.36
2019-04-03T10:42:44.183Z,952.36
2019-04-03T10:43:44.264Z,952.32
2019-04-03T10:44:44.334Z,952.31
2019-04-03T10:45:44.165Z,952.28
2019-04-03T10:46:44.466Z,952.25
2019-04-03T10:47:44.843Z,952.18
2019-04-03T10:48:44.144Z,952.14
2019-04-03T10:49:44.139Z,952.11
2019-04-03T10:50:44.134Z,952.1
2019-04-03T10:51:44.125Z,952.09
2019-04-03T10:52:46.179Z,952.03
2019-04-03T10:53:44.192Z,952.05
2019-04-03T10:54:44.106Z,952.03
2019-04-03T10:55:44.147Z,952.04
2019-04-03T10:56:44.139Z,952.04
2019-04-03T10:57:44.086Z,952
2019-04-03T10:58:44.342Z,951.99
2019-04-03T10:59:44.078Z,951.97
2019-04-03T11:00:44.068Z,951.95
2019-04-03T11:01:44.062Z,951.95
2019-04-03T11:02:44.056Z,951.95
2019-04-03T11:03:44.050Z,951.95
2019-04-03T11:04:44.158Z,951.89
2019-04-03T11:05:44.037Z,951.91
2019-04-03T11:06:44.349Z,951.88
2019-04-03T11:07:44.029Z,951.84
2019-04-03T11:08:44.166Z,951.82
2019-04-03T11:09:44.012Z,951.77
2019-04-03T11:10:44.235Z,951.74
2019-04-03T11:11:44.155Z,951.74
2019-04-03T11:12:44.281Z,951.78
2019-04-03T11:13:43.987Z,951.73
2019-04-03T11:14:43.982Z,951.73
2019-04-03T11:15:44.988Z,951.66
2019-04-03T11:16:46.433Z,951.63
2019-04-03T11:17:44.075Z,951.65
2019-04-03T11:18:43.956Z,951.57
2019-04-03T11:19:44.317Z,951.54
2019-04-03T11:20:43.943Z,951.52
2019-04-03T11:21:44.998Z,951.49
2019-04-03T11:22:43.968Z,951.43
2019-04-03T11:23:45.359Z,951.44
2019-04-03T11:24:44.060Z,951.45
2019-04-03T11:25:45.792Z,951.44
2019-04-03T11:26:44.031Z,951.47
2019-04-03T11:27:45.553Z,951.45
2019-04-03T11:28:43.896Z,951.39
2019-04-03T11:29:43.909Z,951.35
2019-04-03T11:30:44.089Z,951.33
2019-04-03T11:31:44.135Z,951.28
2019-04-03T11:32:43.873Z,951.22
2019-04-03T11:33:45.565Z,951.18
2019-04-03T11:34:43.858Z,951.13
2019-04-03T11:35:43.853Z,951.13
2019-04-03T11:36:43.878Z,951.14
2019-04-03T11:37:43.846Z,951.12
2019-04-03T11:38:43.835Z,951.15
2019-04-03T11:39:44.013Z,951.09
2019-04-03T11:40:43.888Z,951.09
2019-04-03T11:41:43.815Z,951.04
2019-04-03T11:42:43.811Z,951.06
2019-04-03T11:43:44.182Z,951.02
2019-04-03T11:44:43.798Z,951.03
2019-04-03T11:45:44.067Z,950.95
2019-04-03T11:46:43.787Z,950.95
2019-04-03T11:47:45.796Z,950.95
2019-04-03T11:48:43.924Z,950.93
2019-04-03T11:49:43.768Z,950.92
2019-04-03T11:50:43.762Z,950.81
2019-04-03T11:51:43.756Z,950.82
2019-04-03T11:52:43.750Z,950.84
2019-04-03T11:53:45.430Z,950.76
2019-04-03T11:54:43.896Z,950.72
2019-04-03T11:55:43.732Z,950.73
2019-04-03T11:56:45.150Z,950.74
2019-04-03T11:57:44.026Z,950.73
2019-04-03T11:58:43.714Z,950.69
2019-04-03T11:59:44.607Z,950.67
2019-04-03T12:00:43.703Z,950.69
2019-04-03T12:01:43.696Z,950.67
2019-04-03T12:02:44.520Z,950.65
2019-04-03T12:03:43.685Z,950.62
2019-04-03T12:04:44.580Z,950.64
2019-04-03T12:05:43.998Z,950.64
2019-04-03T12:06:43.666Z,950.64
2019-04-03T12:07:43.661Z,950.65
2019-04-03T12:08:45.099Z,950.63
2019-04-03T12:09:43.877Z,950.58
2019-04-03T12:10:43.863Z,950.57
2019-04-03T12:11:43.736Z,950.54
2019-04-03T12:12:43.771Z,950.53
2019-04-03T12:13:45.568Z,950.54
2019-04-03T12:14:43.620Z,950.48
2019-04-03T12:15:43.614Z,950.45
2019-04-03T12:16:43.607Z,950.45
2019-04-03T12:17:43.602Z,950.48
2019-04-03T12:18:43.757Z,950.48
2019-04-03T12:19:45.466Z,950.44
2019-04-03T12:20:45.481Z,950.4
2019-04-03T12:21:43.581Z,950.43
2019-04-03T12:22:44.248Z,950.42
2019-04-03T12:23:43.567Z,950.43
2019-04-03T12:24:43.891Z,950.33
2019-04-03T12:25:43.656Z,950.35
2019-04-03T12:26:44.229Z,950.34
2019-04-03T12:27:45.900Z,950.3
2019-04-03T12:28:43.838Z,950.29
2019-04-03T12:29:43.535Z,950.25
2019-04-03T12:30:43.690Z,950.27
2019-04-03T12:31:43.735Z,950.24